Slocomb, Alabama
Current Conditions -  °F | °C
As of 8:58 PM on Friday 24 Oct 2014 (Local Time) from KOZR Reporting Station
Clear Clear  
Wind Chill: 56°   Ceiling: Unl
Heat Index: 56°   Visibility: 10mi
Dew Point: 47°   Wind: 3mph
Humidity: 71%   Direction: 330°NNW
Pressure: 30.04"   Gusts: NA
Location:  31.11°N, 85.59°W
Report Text: KOZR 250158Z AUTO 33003KT 10SM CLR 14/08 A3004 RMK AO2 SLP174 T01360084
Loading
Personal Weather Stations






























Interactive Weather Map
Tropical Storm Tracking
New forecast layout! Learn more

10-Day Weather Forecast

Advertisements
Track Severe Weather on mobile